Time;durP1;ratioP1;P1;durP2;ratioP2;P2;SDS_P1;SDS_P2;PMS_P1;PMS_P2;Temp;Humidity;BMP_temperature;BMP_pressure;BME280_temperature;BME280_humidity;BME280_pressure;Samples;Min_cycle;Max_cycle;Signal;HPM_P1;HPM_P2
2022/10/30 00:00:41;;;;;;;22.08;17.33;;;;;;;;;;5055076;28;20021;-71
2022/10/30 00:03:10;;;;;;;21.02;16.98;;;;;;;;;;5054362;28;20083;-71
2022/10/30 00:05:36;;;;;;;20.25;17.13;;;;;;;;;;5055149;28;20047;-71
2022/10/30 00:08:02;;;;;;;23.25;17.30;;;;;;;;;;5054797;28;20029;-72
2022/10/30 00:10:28;;;;;;;21.58;17.05;;;;;;;;;;5055002;28;20021;-72
2022/10/30 00:12:54;;;;;;;21.45;16.85;;;;;;;;;;5054417;28;20063;-72
2022/10/30 00:15:20;;;;;;;21.17;16.70;;;;;;;;;;5054850;28;20408;-72
2022/10/30 00:17:46;;;;;;;18.65;16.00;;;;;;;;;;5053389;28;20048;-71
2022/10/30 00:20:12;;;;;;;20.20;16.52;;;;;;;;;;5045048;28;20468;-72
2022/10/30 00:22:38;;;;;;;20.67;16.27;;;;;;;;;;5054319;28;20029;-71
2022/10/30 00:25:05;;;;;;;18.55;15.88;;;;;;;;;;5054479;28;20020;-72
2022/10/30 00:27:31;;;;;;;17.48;15.27;;;;;;;;;;5040074;28;20020;-73
2022/10/30 00:29:57;;;;;;;21.33;17.15;;;;;;;;;;5053910;28;20021;-71
2022/10/30 00:32:23;;;;;;;17.70;15.23;;;;;;;;;;5054275;28;20082;-71
2022/10/30 00:34:49;;;;;;;17.15;14.73;;;;;;;;;;5054397;28;20162;-71
2022/10/30 00:37:15;;;;;;;18.35;15.15;;;;;;;;;;5054036;28;20032;-71
2022/10/30 00:39:41;;;;;;;22.90;16.02;;;;;;;;;;5054339;28;20017;-71
2022/10/30 00:42:11;;;;;;;22.55;17.58;;;;;;;;;;5053402;28;20411;-72
2022/10/30 00:44:44;;;;;;;20.38;17.35;;;;;;;;;;5054087;28;20485;-71
2022/10/30 00:47:10;;;;;;;22.17;19.13;;;;;;;;;;5053861;28;20470;-74
2022/10/30 00:49:38;;;;;;;24.58;16.58;;;;;;;;;;5053474;28;20061;-72
2022/10/30 00:52:05;;;;;;;19.50;15.68;;;;;;;;;;5053955;28;20471;-77
2022/10/30 00:54:32;;;;;;;19.88;15.25;;;;;;;;;;5053838;28;20064;-73
2022/10/30 00:57:00;;;;;;;23.10;19.98;;;;;;;;;;5053825;28;20074;-73
2022/10/30 00:59:28;;;;;;;21.67;17.95;;;;;;;;;;5053763;28;20025;-71
2022/10/30 01:01:54;;;;;;;18.23;14.85;;;;;;;;;;5053725;28;20080;-72
2022/10/30 01:04:20;;;;;;;17.55;14.68;;;;;;;;;;5053599;28;20061;-71
2022/10/30 01:06:47;;;;;;;20.17;13.98;;;;;;;;;;5053771;28;20374;-71
2022/10/30 01:09:14;;;;;;;18.70;15.10;;;;;;;;;;5053696;28;20364;-71
2022/10/30 01:11:40;;;;;;;18.23;16.23;;;;;;;;;;5053924;28;20052;-71
2022/10/30 01:14:08;;;;;;;15.73;14.07;;;;;;;;;;5053215;28;20078;-70
2022/10/30 01:16:34;;;;;;;14.55;13.05;;;;;;;;;;5038486;28;20424;-71
2022/10/30 01:19:07;;;;;;;15.48;13.82;;;;;;;;;;5052351;28;20392;-72
2022/10/30 01:21:45;;;;;;;17.23;14.38;;;;;;;;;;5046392;28;20051;-72
2022/10/30 01:24:11;;;;;;;17.98;14.27;;;;;;;;;;5039841;28;20032;-72
2022/10/30 01:26:56;;;;;;;15.45;13.82;;;;;;;;;;5053433;28;20531;-71
2022/10/30 01:29:25;;;;;;;21.55;16.08;;;;;;;;;;5040406;28;20021;-73
2022/10/30 01:32:10;;;;;;;16.75;14.98;;;;;;;;;;5053322;28;20025;-72
2022/10/30 01:34:44;;;;;;;17.40;13.90;;;;;;;;;;5041805;28;20462;-73
2022/10/30 01:37:15;;;;;;;16.10;14.40;;;;;;;;;;5053111;28;20032;-71
2022/10/30 01:39:41;;;;;;;15.27;13.40;;;;;;;;;;5053421;28;20448;-72
2022/10/30 01:42:08;;;;;;;16.52;14.27;;;;;;;;;;5051572;28;20052;-73
2022/10/30 01:44:34;;;;;;;16.52;14.07;;;;;;;;;;5053032;28;20433;-71
2022/10/30 01:47:06;;;;;;;14.68;13.02;;;;;;;;;;5052733;28;20021;-72
2022/10/30 01:49:38;;;;;;;17.70;14.02;;;;;;;;;;5048785;28;20045;-72
2022/10/30 01:52:11;;;;;;;17.63;14.23;;;;;;;;;;5052944;28;20017;-73
2022/10/30 01:54:55;;;;;;;15.65;13.55;;;;;;;;;;5053285;28;20029;-72
2022/10/30 01:57:21;;;;;;;13.90;12.43;;;;;;;;;;5052646;28;20029;-73
2022/10/30 01:59:53;;;;;;;14.80;13.05;;;;;;;;;;5052492;28;20028;-73
2022/10/30 02:02:19;;;;;;;14.82;13.10;;;;;;;;;;5052622;28;20399;-71
2022/10/30 02:04:45;;;;;;;18.90;12.25;;;;;;;;;;5036542;28;20176;-71
2022/10/30 02:07:11;;;;;;;14.73;13.18;;;;;;;;;;5052421;28;20040;-73
2022/10/30 02:09:39;;;;;;;15.45;13.60;;;;;;;;;;5052770;28;20025;-72
2022/10/30 02:12:05;;;;;;;17.92;14.27;;;;;;;;;;5051726;28;20041;-72
2022/10/30 02:14:34;;;;;;;16.92;15.23;;;;;;;;;;5041404;28;20013;-73
2022/10/30 02:17:02;;;;;;;15.68;13.65;;;;;;;;;;5052280;28;20025;-72
2022/10/30 02:19:28;;;;;;;15.35;13.07;;;;;;;;;;5048034;28;20020;-74
2022/10/30 02:21:54;;;;;;;14.70;13.20;;;;;;;;;;5045834;28;20071;-75
2022/10/30 02:24:20;;;;;;;15.73;13.93;;;;;;;;;;5052568;28;20020;-72
2022/10/30 02:26:46;;;;;;;16.48;14.75;;;;;;;;;;5052409;28;20483;-74
2022/10/30 02:29:12;;;;;;;16.60;14.27;;;;;;;;;;5052028;28;20479;-76
2022/10/30 02:31:38;;;;;;;15.82;13.30;;;;;;;;;;5052398;28;20021;-72
2022/10/30 02:34:04;;;;;;;14.50;12.95;;;;;;;;;;5052496;28;20025;-72
2022/10/30 02:36:31;;;;;;;15.38;12.85;;;;;;;;;;5052647;28;20462;-73
2022/10/30 02:38:57;;;;;;;15.45;12.90;;;;;;;;;;5052205;28;20029;-73
2022/10/30 02:41:23;;;;;;;15.32;12.68;;;;;;;;;;5030106;28;20432;-71
2022/10/30 02:43:50;;;;;;;15.27;13.43;;;;;;;;;;5043666;28;20056;-71
2022/10/30 02:46:16;;;;;;;15.63;13.35;;;;;;;;;;5052253;28;20028;-70
2022/10/30 02:48:43;;;;;;;22.80;14.23;;;;;;;;;;5052465;28;20017;-70
2022/10/30 02:51:09;;;;;;;15.07;12.98;;;;;;;;;;5049923;28;20025;-71
2022/10/30 02:53:35;;;;;;;16.65;13.88;;;;;;;;;;5054205;28;20032;-70
2022/10/30 02:56:08;;;;;;;18.05;14.02;;;;;;;;;;5056318;28;20031;-70
2022/10/30 02:58:34;;;;;;;17.30;13.70;;;;;;;;;;5055682;28;20029;-71
2022/10/30 03:01:19;;;;;;;21.33;14.82;;;;;;;;;;5056110;28;20384;-70
2022/10/30 03:03:45;;;;;;;27.40;18.63;;;;;;;;;;5055911;28;20044;-71
2022/10/30 03:06:14;;;;;;;39.30;28.67;;;;;;;;;;5056022;28;20043;-70
2022/10/30 03:08:40;;;;;;;29.83;20.42;;;;;;;;;;5055854;28;20548;-71
2022/10/30 03:11:08;;;;;;;21.10;15.85;;;;;;;;;;5055918;28;20056;-71
2022/10/30 03:13:35;;;;;;;23.08;16.45;;;;;;;;;;5055812;28;20397;-72
2022/10/30 03:16:05;;;;;;;21.98;16.58;;;;;;;;;;5055902;28;20021;-71
2022/10/30 03:18:31;;;;;;;23.67;17.02;;;;;;;;;;5055615;28;20029;-72
2022/10/30 03:20:58;;;;;;;22.30;16.98;;;;;;;;;;5047043;28;20029;-72
2022/10/30 03:23:24;;;;;;;19.55;16.48;;;;;;;;;;5055375;28;20060;-72
2022/10/30 03:25:54;;;;;;;24.52;15.80;;;;;;;;;;5055674;28;20017;-72
2022/10/30 03:28:21;;;;;;;19.60;14.82;;;;;;;;;;5055456;28;20021;-72
2022/10/30 03:30:48;;;;;;;18.88;16.13;;;;;;;;;;5055442;28;20455;-72
2022/10/30 03:33:14;;;;;;;15.07;13.48;;;;;;;;;;5055409;28;20045;-72
2022/10/30 03:35:40;;;;;;;15.32;12.75;;;;;;;;;;5055466;28;20024;-72
2022/10/30 03:38:06;;;;;;;17.45;13.25;;;;;;;;;;5055309;28;20029;-72
2022/10/30 03:40:32;;;;;;;17.48;14.57;;;;;;;;;;5055279;28;20079;-73
2022/10/30 03:42:58;;;;;;;17.13;13.73;;;;;;;;;;5054746;28;20507;-73
2022/10/30 03:45:24;;;;;;;14.88;12.82;;;;;;;;;;5055140;28;20028;-72
2022/10/30 03:47:50;;;;;;;16.23;13.07;;;;;;;;;;5055128;28;20059;-72
2022/10/30 03:50:16;;;;;;;17.10;13.38;;;;;;;;;;5051757;28;20017;-71
2022/10/30 03:52:42;;;;;;;14.52;13.00;;;;;;;;;;5055201;28;20025;-70
2022/10/30 03:55:08;;;;;;;14.77;13.07;;;;;;;;;;5054742;28;20025;-71
2022/10/30 03:57:38;;;;;;;15.52;13.20;;;;;;;;;;5055299;28;20421;-71
2022/10/30 04:00:04;;;;;;;15.95;12.23;;;;;;;;;;5054607;28;20021;-71
2022/10/30 04:02:30;;;;;;;13.20;11.93;;;;;;;;;;5055099;28;20033;-73
2022/10/30 04:04:57;;;;;;;13.73;12.38;;;;;;;;;;5053660;28;20048;-72
2022/10/30 04:07:23;;;;;;;13.35;11.95;;;;;;;;;;5054905;28;20437;-72
2022/10/30 04:09:49;;;;;;;13.50;12.00;;;;;;;;;;5054801;28;20025;-72
2022/10/30 04:12:15;;;;;;;13.40;12.02;;;;;;;;;;5054790;28;20021;-72
2022/10/30 04:14:41;;;;;;;14.30;12.15;;;;;;;;;;5054450;28;20471;-71
2022/10/30 04:17:07;;;;;;;13.32;11.93;;;;;;;;;;5054562;28;20471;-71
2022/10/30 04:19:33;;;;;;;14.05;11.63;;;;;;;;;;5049647;28;20021;-71
2022/10/30 04:21:59;;;;;;;13.38;11.80;;;;;;;;;;5051115;28;20108;-72
2022/10/30 04:24:25;;;;;;;14.75;11.68;;;;;;;;;;5054423;28;20052;-72
2022/10/30 04:26:51;;;;;;;13.52;10.73;;;;;;;;;;5054341;28;20021;-71
2022/10/30 04:29:17;;;;;;;12.50;11.02;;;;;;;;;;5054281;28;20017;-71
2022/10/30 04:31:43;;;;;;;12.75;11.45;;;;;;;;;;5054376;28;20254;-70
2022/10/30 04:34:10;;;;;;;15.45;12.30;;;;;;;;;;5054225;28;20040;-71
2022/10/30 04:36:36;;;;;;;13.32;11.77;;;;;;;;;;5054341;28;20016;-71
2022/10/30 04:39:03;;;;;;;12.65;11.35;;;;;;;;;;5053992;28;20513;-71
2022/10/30 04:41:29;;;;;;;13.75;12.38;;;;;;;;;;5053975;28;20087;-72
2022/10/30 04:43:55;;;;;;;16.95;13.18;;;;;;;;;;5053765;28;20045;-72
2022/10/30 04:46:21;;;;;;;15.68;13.60;;;;;;;;;;5054146;28;20460;-71
2022/10/30 04:48:48;;;;;;;16.73;13.60;;;;;;;;;;5053974;28;20029;-71
2022/10/30 04:51:14;;;;;;;14.43;12.73;;;;;;;;;;5050811;28;20021;-71
2022/10/30 04:53:41;;;;;;;16.77;13.20;;;;;;;;;;5054021;28;20028;-72
2022/10/30 04:56:07;;;;;;;14.15;11.60;;;;;;;;;;5054032;28;20550;-73
2022/10/30 04:58:33;;;;;;;14.63;11.93;;;;;;;;;;5053637;28;20029;-73
2022/10/30 05:01:03;;;;;;;14.20;12.18;;;;;;;;;;5051766;28;20017;-73
2022/10/30 05:03:29;;;;;;;12.85;11.55;;;;;;;;;;5053539;28;20029;-74
2022/10/30 05:05:56;;;;;;;12.02;10.77;;;;;;;;;;5040133;28;20017;-73
2022/10/30 05:08:22;;;;;;;11.85;10.65;;;;;;;;;;5053555;28;20029;-73
2022/10/30 05:10:48;;;;;;;14.18;11.73;;;;;;;;;;5053799;28;20538;-73
2022/10/30 05:13:14;;;;;;;12.00;10.77;;;;;;;;;;5053554;28;20375;-72
2022/10/30 05:15:40;;;;;;;12.75;11.35;;;;;;;;;;5053496;28;20025;-71
2022/10/30 05:18:06;;;;;;;59.13;52.92;;;;;;;;;;5053291;28;20025;-71
2022/10/30 05:20:32;;;;;;;21.05;17.70;;;;;;;;;;5052469;28;20025;-71
2022/10/30 05:22:59;;;;;;;13.13;10.95;;;;;;;;;;5053477;28;20112;-71
2022/10/30 05:25:25;;;;;;;13.25;11.70;;;;;;;;;;5053512;28;20031;-70
2022/10/30 05:27:57;;;;;;;13.48;11.68;;;;;;;;;;5053160;28;20025;-71
2022/10/30 05:30:23;;;;;;;15.00;12.60;;;;;;;;;;5053107;28;20025;-71
2022/10/30 05:32:49;;;;;;;15.93;12.25;;;;;;;;;;5053142;28;20033;-71
2022/10/30 05:35:15;;;;;;;18.05;12.10;;;;;;;;;;5052997;28;20017;-71
2022/10/30 05:37:41;;;;;;;14.93;11.85;;;;;;;;;;5037577;28;20064;-71
2022/10/30 05:40:07;;;;;;;13.57;12.18;;;;;;;;;;5051847;28;20468;-71
2022/10/30 05:42:33;;;;;;;24.48;19.33;;;;;;;;;;5052716;28;20057;-72
2022/10/30 05:44:59;;;;;;;37.22;27.35;;;;;;;;;;5052566;28;20096;-71
2022/10/30 05:47:25;;;;;;;16.17;12.98;;;;;;;;;;5053075;28;20025;-71
2022/10/30 05:49:51;;;;;;;14.23;12.63;;;;;;;;;;5049709;28;20036;-72
2022/10/30 05:52:17;;;;;;;15.80;12.95;;;;;;;;;;5053042;28;20032;-72
2022/10/30 05:54:43;;;;;;;15.25;13.00;;;;;;;;;;5052727;28;20068;-70
2022/10/30 05:57:09;;;;;;;17.40;13.45;;;;;;;;;;5052605;28;20085;-71
2022/10/30 05:59:35;;;;;;;19.23;16.90;;;;;;;;;;5052599;28;20078;-71
2022/10/30 06:02:01;;;;;;;19.60;15.63;;;;;;;;;;5038935;28;20033;-70
2022/10/30 06:04:27;;;;;;;18.30;14.90;;;;;;;;;;5052956;28;20057;-71
2022/10/30 06:06:53;;;;;;;17.67;15.23;;;;;;;;;;5033090;28;20481;-71
2022/10/30 06:09:19;;;;;;;18.98;15.75;;;;;;;;;;5042818;28;20475;-71
2022/10/30 06:11:45;;;;;;;17.65;14.35;;;;;;;;;;5052533;28;20041;-71
2022/10/30 06:14:12;;;;;;;18.15;15.68;;;;;;;;;;5052516;28;20503;-74
2022/10/30 06:16:38;;;;;;;21.40;15.73;;;;;;;;;;5052485;28;20032;-73
2022/10/30 06:19:04;;;;;;;17.33;15.40;;;;;;;;;;5052145;28;20536;-73
2022/10/30 06:21:30;;;;;;;19.30;15.25;;;;;;;;;;5031334;28;20470;-72
2022/10/30 06:23:57;;;;;;;19.40;14.50;;;;;;;;;;5050797;28;20503;-72
2022/10/30 06:26:23;;;;;;;16.23;13.48;;;;;;;;;;5053090;28;20032;-74
2022/10/30 06:28:49;;;;;;;19.17;14.02;;;;;;;;;;5051548;28;20021;-71
2022/10/30 06:31:15;;;;;;;26.25;21.20;;;;;;;;;;5052468;28;20020;-72
2022/10/30 06:33:41;;;;;;;15.18;12.23;;;;;;;;;;5052269;28;20025;-71
2022/10/30 06:36:07;;;;;;;14.48;11.52;;;;;;;;;;5052558;28;20029;-72
2022/10/30 06:38:34;;;;;;;11.68;9.70;;;;;;;;;;5052304;28;20427;-71
2022/10/30 06:41:00;;;;;;;13.75;9.48;;;;;;;;;;5052328;28;20017;-72
2022/10/30 06:43:26;;;;;;;17.67;11.27;;;;;;;;;;5051697;28;20053;-71
2022/10/30 06:45:52;;;;;;;12.25;11.05;;;;;;;;;;5052473;28;20013;-71
2022/10/30 06:48:18;;;;;;;12.05;10.70;;;;;;;;;;5052189;28;20533;-72
2022/10/30 06:50:44;;;;;;;12.98;10.57;;;;;;;;;;5049597;28;20528;-71
2022/10/30 06:53:10;;;;;;;21.00;12.63;;;;;;;;;;5051908;28;20053;-72
2022/10/30 06:55:36;;;;;;;13.98;12.05;;;;;;;;;;5052802;28;20021;-72
2022/10/30 06:58:02;;;;;;;14.70;11.75;;;;;;;;;;5051847;28;20067;-71
2022/10/30 07:00:28;;;;;;;16.00;11.00;;;;;;;;;;5052135;28;20020;-72
2022/10/30 07:02:58;;;;;;;13.50;12.15;;;;;;;;;;5051888;28;20072;-72
2022/10/30 07:05:24;;;;;;;21.60;16.33;;;;;;;;;;5051956;28;20022;-72
2022/10/30 07:07:51;;;;;;;21.30;16.20;;;;;;;;;;5052174;28;20025;-71
2022/10/30 07:10:17;;;;;;;17.95;13.75;;;;;;;;;;5051808;28;20371;-72
2022/10/30 07:12:50;;;;;;;15.77;12.75;;;;;;;;;;5052311;28;20094;-71
2022/10/30 07:15:16;;;;;;;14.93;12.25;;;;;;;;;;5051550;28;20375;-73
2022/10/30 07:17:42;;;;;;;23.73;17.23;;;;;;;;;;5052053;28;20024;-72
2022/10/30 07:20:08;;;;;;;17.30;14.43;;;;;;;;;;5044246;28;20032;-71
2022/10/30 07:22:37;;;;;;;27.73;21.38;;;;;;;;;;5051933;28;20037;-73
2022/10/30 07:25:03;;;;;;;25.50;22.80;;;;;;;;;;5051697;28;20052;-71
2022/10/30 07:27:30;;;;;;;30.88;24.52;;;;;;;;;;5051650;28;20025;-72
2022/10/30 07:29:56;;;;;;;31.60;24.75;;;;;;;;;;5051800;28;20035;-71
2022/10/30 07:32:22;;;;;;;40.70;26.38;;;;;;;;;;5051747;28;20021;-71
2022/10/30 07:34:48;;;;;;;35.22;25.67;;;;;;;;;;5039576;28;20038;-75
2022/10/30 07:37:14;;;;;;;30.70;24.65;;;;;;;;;;5047706;28;20494;-73
2022/10/30 07:39:40;;;;;;;44.58;26.63;;;;;;;;;;5052101;28;20428;-73
2022/10/30 07:42:06;;;;;;;37.97;25.75;;;;;;;;;;5054913;28;20048;-75
2022/10/30 07:44:32;;;;;;;35.50;27.27;;;;;;;;;;5041368;28;20025;-72
2022/10/30 07:46:58;;;;;;;37.70;28.50;;;;;;;;;;5054943;28;20479;-72
2022/10/30 07:49:24;;;;;;;39.78;29.58;;;;;;;;;;5052233;28;20021;-72
2022/10/30 07:51:50;;;;;;;42.17;30.65;;;;;;;;;;5055144;28;20420;-71
2022/10/30 07:54:16;;;;;;;35.70;28.38;;;;;;;;;;5054956;28;20049;-74
2022/10/30 07:56:43;;;;;;;36.78;25.58;;;;;;;;;;5055155;28;20025;-75
2022/10/30 07:59:09;;;;;;;35.63;24.95;;;;;;;;;;5054496;28;20035;-70
2022/10/30 08:01:35;;;;;;;31.80;25.98;;;;;;;;;;5054641;28;20029;-73
2022/10/30 08:04:01;;;;;;;31.77;26.38;;;;;;;;;;5044056;28;20115;-71
2022/10/30 08:06:27;;;;;;;33.22;24.85;;;;;;;;;;5049397;28;20025;-71
2022/10/30 08:08:53;;;;;;;38.55;28.45;;;;;;;;;;5054555;28;20028;-71
2022/10/30 08:11:19;;;;;;;20.60;16.80;;;;;;;;;;5054064;28;20096;-72
2022/10/30 08:13:45;;;;;;;21.75;16.42;;;;;;;;;;5052939;28;20053;-73
2022/10/30 08:16:11;;;;;;;19.20;15.75;;;;;;;;;;5054241;28;20029;-74
2022/10/30 08:18:40;;;;;;;17.98;14.85;;;;;;;;;;5053265;28;20021;-73
2022/10/30 08:21:06;;;;;;;19.60;16.45;;;;;;;;;;5049235;28;20021;-72
2022/10/30 08:23:32;;;;;;;20.98;18.67;;;;;;;;;;5042173;28;20479;-72
2022/10/30 08:26:01;;;;;;;22.00;16.00;;;;;;;;;;5052114;28;20383;-72
2022/10/30 08:28:27;;;;;;;20.10;15.90;;;;;;;;;;5049865;28;20018;-73
2022/10/30 08:30:53;;;;;;;20.08;14.73;;;;;;;;;;5047640;28;20022;-71
2022/10/30 08:33:19;;;;;;;20.25;16.60;;;;;;;;;;5053716;28;20067;-72
2022/10/30 08:35:49;;;;;;;21.45;16.88;;;;;;;;;;5048965;28;20020;-73
2022/10/30 08:38:15;;;;;;;19.38;14.85;;;;;;;;;;5048514;28;20025;-72
2022/10/30 08:40:41;;;;;;;19.23;14.75;;;;;;;;;;5053723;28;20021;-71
2022/10/30 08:43:07;;;;;;;19.92;14.45;;;;;;;;;;5048568;28;20118;-73
2022/10/30 08:45:33;;;;;;;22.05;16.88;;;;;;;;;;5052912;28;20023;-72
2022/10/30 08:48:02;;;;;;;22.25;17.88;;;;;;;;;;5043615;28;20049;-73
2022/10/30 08:50:28;;;;;;;19.25;14.65;;;;;;;;;;5048135;28;20108;-72
2022/10/30 08:52:54;;;;;;;21.55;17.70;;;;;;;;;;5053499;28;20440;-72
2022/10/30 08:55:20;;;;;;;29.30;22.15;;;;;;;;;;5053558;28;20013;-72
2022/10/30 08:57:46;;;;;;;37.40;23.88;;;;;;;;;;5053399;28;20033;-73
2022/10/30 09:00:12;;;;;;;25.42;20.98;;;;;;;;;;5043770;28;20464;-71
2022/10/30 09:02:38;;;;;;;22.90;18.33;;;;;;;;;;5051209;28;20502;-72
2022/10/30 09:05:05;;;;;;;20.85;16.88;;;;;;;;;;5053482;28;20118;-71
2022/10/30 09:07:31;;;;;;;24.13;18.90;;;;;;;;;;5053544;28;20108;-72
2022/10/30 09:09:57;;;;;;;23.23;19.25;;;;;;;;;;5053530;28;20018;-73
2022/10/30 09:12:23;;;;;;;21.35;17.73;;;;;;;;;;5053607;28;20506;-73
2022/10/30 09:14:49;;;;;;;22.90;19.13;;;;;;;;;;5053464;28;20357;-72
2022/10/30 09:17:16;;;;;;;31.92;21.85;;;;;;;;;;5053362;28;20082;-73
2022/10/30 09:19:42;;;;;;;30.00;22.77;;;;;;;;;;5052602;28;20071;-74
2022/10/30 09:22:08;;;;;;;26.08;21.27;;;;;;;;;;5053528;28;20378;-71
2022/10/30 09:24:38;;;;;;;24.65;21.23;;;;;;;;;;5053185;28;20618;-72
2022/10/30 09:27:04;;;;;;;23.65;20.33;;;;;;;;;;5053101;28;20410;-71
2022/10/30 09:29:31;;;;;;;35.45;27.50;;;;;;;;;;5052993;28;20052;-72
2022/10/30 09:31:57;;;;;;;32.22;24.13;;;;;;;;;;5052542;28;20056;-73
2022/10/30 09:34:23;;;;;;;37.80;29.20;;;;;;;;;;5052609;28;20078;-70
2022/10/30 09:36:49;;;;;;;31.02;25.98;;;;;;;;;;5052765;28;20029;-74
2022/10/30 09:39:15;;;;;;;38.65;30.08;;;;;;;;;;5052273;28;20025;-71
2022/10/30 09:41:50;;;;;;;33.50;27.05;;;;;;;;;;5052022;28;20451;-72
2022/10/30 09:44:25;;;;;;;27.08;23.10;;;;;;;;;;5052289;28;20064;-73
2022/10/30 09:47:04;;;;;;;30.05;23.35;;;;;;;;;;5052233;28;20084;-72
2022/10/30 09:49:30;;;;;;;30.33;24.63;;;;;;;;;;5051682;28;20021;-72
2022/10/30 09:52:13;;;;;;;33.80;26.98;;;;;;;;;;5052103;28;20599;-76
2022/10/30 09:54:58;;;;;;;29.58;24.08;;;;;;;;;;5052756;28;20090;-70
2022/10/30 09:57:33;;;;;;;19.52;15.18;;;;;;;;;;5052230;28;20024;-70
2022/10/30 10:00:10;;;;;;;20.92;15.55;;;;;;;;;;5052506;28;20474;-72
2022/10/30 10:02:52;;;;;;;19.67;16.05;;;;;;;;;;5050902;28;20033;-70
2022/10/30 10:05:21;;;;;;;17.38;12.88;;;;;;;;;;5048204;28;20021;-73
2022/10/30 10:07:49;;;;;;;20.63;17.00;;;;;;;;;;5052339;28;20025;-72
2022/10/30 10:10:19;;;;;;;19.13;12.55;;;;;;;;;;5052454;28;20021;-73
2022/10/30 10:12:47;;;;;;;16.13;9.73;;;;;;;;;;5052260;28;20040;-71
2022/10/30 10:15:21;;;;;;;21.88;13.85;;;;;;;;;;5052106;28;20025;-72
2022/10/30 10:17:47;;;;;;;15.30;11.95;;;;;;;;;;5051776;28;20032;-71
2022/10/30 10:20:16;;;;;;;12.20;9.35;;;;;;;;;;5044236;28;20491;-74
2022/10/30 10:22:51;;;;;;;11.48;9.95;;;;;;;;;;5052497;28;20070;-73
2022/10/30 10:25:19;;;;;;;14.57;9.40;;;;;;;;;;5052166;28;20029;-73
2022/10/30 10:27:51;;;;;;;14.43;9.40;;;;;;;;;;5052258;28;20383;-72
2022/10/30 10:30:19;;;;;;;14.15;9.93;;;;;;;;;;5051864;28;20029;-72
2022/10/30 10:33:03;;;;;;;16.90;12.15;;;;;;;;;;5052407;28;20487;-73
2022/10/30 10:35:29;;;;;;;16.35;11.70;;;;;;;;;;5039078;28;20021;-71
2022/10/30 10:38:14;;;;;;;11.18;9.80;;;;;;;;;;5052381;28;20036;-69
2022/10/30 10:40:53;;;;;;;16.92;11.73;;;;;;;;;;5051772;28;20021;-69
2022/10/30 10:43:38;;;;;;;14.07;12.10;;;;;;;;;;5051988;28;20129;-71
2022/10/30 10:46:10;;;;;;;14.70;11.05;;;;;;;;;;5038533;28;20376;-71
2022/10/30 10:48:55;;;;;;;13.90;10.20;;;;;;;;;;5052082;28;20033;-69
2022/10/30 10:51:24;;;;;;;13.85;9.80;;;;;;;;;;5047873;28;20434;-71
2022/10/30 10:54:04;;;;;;;24.48;9.93;;;;;;;;;;5051973;28;20025;-70
2022/10/30 10:56:34;;;;;;;10.63;9.53;;;;;;;;;;5052137;28;20029;-76
2022/10/30 10:59:02;;;;;;;11.30;8.52;;;;;;;;;;5051748;28;20021;-72
2022/10/30 11:01:39;;;;;;;16.60;12.57;;;;;;;;;;5052039;28;20032;-73
2022/10/30 11:04:10;;;;;;;13.82;11.55;;;;;;;;;;5051680;28;20028;-72
2022/10/30 11:06:38;;;;;;;12.73;10.10;;;;;;;;;;5051866;28;20032;-71
2022/10/30 11:09:20;;;;;;;15.75;13.18;;;;;;;;;;5051647;28;20029;-73
2022/10/30 11:11:48;;;;;;;15.05;12.23;;;;;;;;;;5052083;28;20021;-74
2022/10/30 11:14:15;;;;;;;17.90;11.15;;;;;;;;;;5053030;28;20021;-76
2022/10/30 11:16:47;;;;;;;11.90;10.80;;;;;;;;;;5055868;28;20070;-77
2022/10/30 11:19:13;;;;;;;15.75;13.73;;;;;;;;;;5052580;28;20029;-73
2022/10/30 11:21:42;;;;;;;14.60;13.13;;;;;;;;;;5055336;28;20086;-70
2022/10/30 11:24:35;;;;;;;18.38;13.48;;;;;;;;;;5054685;28;20053;-73
2022/10/30 11:27:20;;;;;;;23.55;15.98;;;;;;;;;;5052556;28;20041;-72
2022/10/30 11:29:54;;;;;;;16.50;14.48;;;;;;;;;;5055398;28;20059;-71
2022/10/30 11:32:21;;;;;;;16.48;13.32;;;;;;;;;;5055428;28;20398;-73
2022/10/30 11:34:59;;;;;;;16.67;14.20;;;;;;;;;;5055463;28;20029;-76
2022/10/30 11:37:30;;;;;;;14.98;13.40;;;;;;;;;;5055145;28;20048;-75
2022/10/30 11:40:05;;;;;;;55.50;44.30;;;;;;;;;;5055414;28;20059;-76
2022/10/30 11:42:31;;;;;;;56.25;49.10;;;;;;;;;;5054747;28;20064;-70
2022/10/30 11:44:57;;;;;;;40.33;32.97;;;;;;;;;;5055140;28;20049;-74
2022/10/30 11:47:34;;;;;;;53.65;43.65;;;;;;;;;;5054918;28;20021;-76
2022/10/30 11:50:02;;;;;;;174.32;156.15;;;;;;;;;;5053932;28;20017;-73
2022/10/30 11:52:28;;;;;;;39.38;34.25;;;;;;;;;;5055125;28;20032;-74
2022/10/30 11:54:54;;;;;;;117.35;100.65;;;;;;;;;;5054880;28;20028;-74
2022/10/30 11:57:37;;;;;;;28.67;25.67;;;;;;;;;;5054910;28;20430;-75
2022/10/30 12:00:08;;;;;;;33.13;29.08;;;;;;;;;;5054866;28;20017;-75
2022/10/30 12:02:41;;;;;;;65.38;54.80;;;;;;;;;;5052611;28;20073;-74
2022/10/30 12:05:31;;;;;;;54.92;44.03;;;;;;;;;;5041649;28;20013;-74
2022/10/30 12:08:06;;;;;;;25.05;21.42;;;;;;;;;;4974158;28;20066;-72
2022/10/30 12:10:33;;;;;;;72.85;62.65;;;;;;;;;;4969961;28;20535;-73
2022/10/30 12:13:06;;;;;;;18.05;16.35;;;;;;;;;;4972912;28;20074;-73
2022/10/30 12:15:36;;;;;;;42.10;32.88;;;;;;;;;;4972637;28;20027;-76
2022/10/30 12:18:04;;;;;;;44.10;39.30;;;;;;;;;;4973800;28;20023;-75
2022/10/30 12:20:32;;;;;;;19.70;17.60;;;;;;;;;;4973319;28;20536;-75
2022/10/30 12:22:58;;;;;;;23.55;20.23;;;;;;;;;;4973761;28;20402;-75
2022/10/30 12:25:30;;;;;;;17.42;15.63;;;;;;;;;;4972744;28;20549;-75
2022/10/30 12:28:07;;;;;;;70.00;60.20;;;;;;;;;;4973854;28;20429;-74
2022/10/30 12:30:43;;;;;;;20.13;18.13;;;;;;;;;;4973566;28;20030;-75
2022/10/30 12:33:16;;;;;;;27.98;23.20;;;;;;;;;;4973471;28;20512;-75
2022/10/30 12:35:42;;;;;;;20.90;18.67;;;;;;;;;;4973422;28;20038;-76
2022/10/30 12:38:15;;;;;;;37.97;31.83;;;;;;;;;;4973334;28;20035;-72
2022/10/30 12:40:44;;;;;;;25.15;22.13;;;;;;;;;;4971375;28;20619;-72
2022/10/30 12:43:10;;;;;;;20.80;16.27;;;;;;;;;;4961664;28;20149;-72
2022/10/30 12:45:42;;;;;;;16.40;14.32;;;;;;;;;;5036635;28;20483;-72
2022/10/30 12:48:17;;;;;;;25.40;13.68;;;;;;;;;;5053647;28;20029;-72
2022/10/30 12:51:06;;;;;;;11.23;10.02;;;;;;;;;;5052759;28;20122;-72
2022/10/30 12:53:36;;;;;;;16.40;13.27;;;;;;;;;;4973055;28;20038;-72
2022/10/30 12:56:04;;;;;;;13.13;10.95;;;;;;;;;;4973221;28;20035;-73
2022/10/30 12:58:43;;;;;;;16.25;14.55;;;;;;;;;;4972234;28;20501;-73
2022/10/30 13:01:12;;;;;;;12.93;11.63;;;;;;;;;;4970981;28;20058;-74
2022/10/30 13:03:47;;;;;;;13.35;11.23;;;;;;;;;;4967948;28;20027;-73
2022/10/30 13:06:16;;;;;;;16.38;10.77;;;;;;;;;;4966648;28;20029;-71
2022/10/30 13:09:00;;;;;;;29.35;25.63;;;;;;;;;;4968622;28;20034;-72
2022/10/30 13:11:48;;;;;;;24.40;19.42;;;;;;;;;;4969693;28;20050;-72
2022/10/30 13:14:16;;;;;;;43.95;36.75;;;;;;;;;;4971089;28;20038;-73
2022/10/30 13:16:43;;;;;;;44.28;35.00;;;;;;;;;;4969495;28;20027;-72
2022/10/30 13:19:10;;;;;;;103.75;83.57;;;;;;;;;;4971955;28;20061;-73
2022/10/30 13:22:03;;;;;;;104.85;84.53;;;;;;;;;;4971243;28;20512;-72
2022/10/30 13:24:48;;;;;;;16.08;14.38;;;;;;;;;;4931903;29;20127;-72
2022/10/30 13:27:17;;;;;;;39.65;30.42;;;;;;;;;;4932480;29;20027;-72
2022/10/30 13:29:55;;;;;;;28.30;21.67;;;;;;;;;;4939475;28;20051;-74
2022/10/30 13:32:33;;;;;;;24.48;19.55;;;;;;;;;;4992489;28;20393;-72
2022/10/30 13:35:34;;;;;;;16.48;12.00;;;;;;;;;;4990826;28;20608;-73
2022/10/30 13:38:00;;;;;;;18.30;14.02;;;;;;;;;;4951304;28;20067;-73
2022/10/30 13:40:37;;;;;;;23.15;19.17;;;;;;;;;;4952416;29;20035;-72
2022/10/30 13:43:14;;;;;;;31.13;24.85;;;;;;;;;;4934543;29;20563;-73
2022/10/30 13:45:50;;;;;;;25.48;21.05;;;;;;;;;;4951854;29;20039;-74
2022/10/30 13:48:33;;;;;;;16.10;13.70;;;;;;;;;;4937460;28;20035;-72
2022/10/30 13:51:09;;;;;;;17.42;14.68;;;;;;;;;;4932639;29;20383;-72
2022/10/30 13:53:38;;;;;;;18.83;14.80;;;;;;;;;;4933801;29;20046;-71
2022/10/30 13:56:04;;;;;;;32.13;24.52;;;;;;;;;;4933497;29;20070;-72
2022/10/30 13:58:49;;;;;;;31.42;23.98;;;;;;;;;;4933751;29;20572;-71
2022/10/30 14:01:23;;;;;;;24.75;21.63;;;;;;;;;;4942654;29;20074;-71
2022/10/30 14:03:58;;;;;;;28.95;24.27;;;;;;;;;;4959220;28;20520;-72
2022/10/30 14:06:48;;;;;;;32.72;26.40;;;;;;;;;;4971752;28;20043;-72
2022/10/30 14:09:14;;;;;;;31.05;23.60;;;;;;;;;;4945692;28;20038;-73
2022/10/30 14:11:40;;;;;;;23.83;20.25;;;;;;;;;;4995825;28;20472;-71
2022/10/30 14:14:12;;;;;;;28.63;21.58;;;;;;;;;;5052443;28;20029;-73
2022/10/30 14:16:38;;;;;;;17.05;13.93;;;;;;;;;;5052437;28;20032;-72
2022/10/30 14:19:05;;;;;;;21.38;14.00;;;;;;;;;;5052040;28;20021;-72
2022/10/30 14:21:32;;;;;;;24.00;16.90;;;;;;;;;;5046752;28;20086;-71
2022/10/30 14:24:05;;;;;;;22.13;16.55;;;;;;;;;;5052011;28;20036;-71
2022/10/30 14:26:31;;;;;;;31.25;24.65;;;;;;;;;;5052521;28;20028;-71